Time;durP1;ratioP1;P1;durP2;ratioP2;P2;SDS_P1;SDS_P2;PMS_P1;PMS_P2;Temp;Humidity;BMP_temperature;BMP_pressure;BME280_temperature;BME280_humidity;BME280_pressure;Samples;Min_cycle;Max_cycle;Signal;HPM_P1;HPM_P2
2021/03/04 00:00:49;;;;;;;2.97;0.80;;;;;;;17.79;48.07;101724.75;4994534;28;20030;-60
2021/03/04 00:03:15;;;;;;;5.97;0.90;;;;;;;17.76;48.08;101732.44;4994302;28;20031;-58
2021/03/04 00:05:41;;;;;;;2.75;0.82;;;;;;;17.69;48.17;101735.13;4994387;28;20026;-57
2021/03/04 00:08:06;;;;;;;2.83;0.98;;;;;;;17.65;48.23;101731.13;4994368;28;20022;-60
2021/03/04 00:10:33;;;;;;;1.63;1.00;;;;;;;17.61;48.15;101730.69;4994425;28;20029;-60
2021/03/04 00:12:59;;;;;;;3.45;0.90;;;;;;;17.59;48.25;101719.19;4968156;28;20501;-60
2021/03/04 00:15:26;;;;;;;1.33;0.65;;;;;;;17.55;48.13;101720.63;5000368;28;20034;-58
2021/03/04 00:17:52;;;;;;;1.08;0.60;;;;;;;17.55;48.60;101722.50;5013077;28;20347;-60
2021/03/04 00:20:21;;;;;;;0.60;0.52;;;;;;;17.51;48.13;101722.09;4994227;28;20029;-60
2021/03/04 00:22:47;;;;;;;1.63;0.60;;;;;;;17.50;48.62;101723.13;4990183;28;20022;-60
2021/03/04 00:25:13;;;;;;;1.33;0.73;;;;;;;17.46;48.38;101727.31;4978249;28;20018;-59
2021/03/04 00:27:38;;;;;;;1.00;0.60;;;;;;;17.44;48.35;101718.50;4988237;28;20376;-60
2021/03/04 00:30:05;;;;;;;2.08;0.90;;;;;;;17.38;48.46;101719.31;4993642;28;20038;-60
2021/03/04 00:32:31;;;;;;;1.02;0.73;;;;;;;17.37;48.19;101728.50;4977723;28;20481;-60
2021/03/04 00:34:56;;;;;;;1.92;0.90;;;;;;;17.34;48.24;101724.34;4989910;28;20102;-60
2021/03/04 00:37:22;;;;;;;3.50;0.65;;;;;;;17.31;48.21;101715.75;4993858;28;20492;-60
2021/03/04 00:39:48;;;;;;;1.15;0.70;;;;;;;17.28;48.14;101722.38;4983963;28;20374;-59
2021/03/04 00:42:13;;;;;;;1.73;0.80;;;;;;;17.26;48.32;101712.78;4974446;28;20320;-59
2021/03/04 00:44:39;;;;;;;0.95;0.50;;;;;;;17.23;48.25;101718.59;4997925;28;20030;-59
2021/03/04 00:47:04;;;;;;;1.15;0.70;;;;;;;17.20;48.32;101711.72;5012836;28;20342;-60
2021/03/04 00:49:30;;;;;;;2.50;0.80;;;;;;;17.16;48.32;101714.00;4987095;28;20022;-59
2021/03/04 00:51:56;;;;;;;0.85;0.40;;;;;;;17.13;48.22;101706.25;5002086;28;20484;-59
2021/03/04 00:54:22;;;;;;;1.63;0.75;;;;;;;17.10;48.05;101711.25;4983318;28;20026;-60
2021/03/04 00:56:47;;;;;;;1.30;0.65;;;;;;;17.05;48.29;101705.56;4980345;28;20560;-60
2021/03/04 00:59:13;;;;;;;1.70;0.77;;;;;;;17.04;48.36;101704.75;5003554;28;20109;-59
2021/03/04 01:01:39;;;;;;;1.65;0.80;;;;;;;17.02;48.20;101706.00;5012377;28;20125;-60
2021/03/04 01:04:05;;;;;;;3.55;0.80;;;;;;;16.99;48.26;101709.09;5012314;28;20076;-60
2021/03/04 01:06:30;;;;;;;2.03;0.88;;;;;;;16.95;48.42;101711.38;5012697;28;20022;-59
2021/03/04 01:08:56;;;;;;;4.47;0.70;;;;;;;16.93;48.47;101710.72;4982154;28;20022;-60
2021/03/04 01:11:21;;;;;;;1.00;0.60;;;;;;;16.92;48.45;101700.91;5012692;28;20279;-59
2021/03/04 01:13:47;;;;;;;1.67;0.65;;;;;;;16.92;48.32;101709.06;4981435;28;20032;-58
2021/03/04 01:16:13;;;;;;;3.20;0.47;;;;;;;16.89;48.33;101709.44;5009694;28;20420;-59
2021/03/04 01:18:38;;;;;;;1.67;0.70;;;;;;;16.87;48.33;101711.53;4993902;28;22002;-60
2021/03/04 01:21:04;;;;;;;2.90;0.50;;;;;;;16.85;48.33;101708.19;4988703;28;20188;-59
2021/03/04 01:23:30;;;;;;;1.13;0.57;;;;;;;16.83;48.35;101705.66;4992953;28;20029;-60
2021/03/04 01:25:55;;;;;;;2.10;0.60;;;;;;;16.80;48.40;101705.22;4991367;28;20026;-60
2021/03/04 01:28:21;;;;;;;1.17;0.73;;;;;;;16.77;48.27;101705.63;4992688;28;20029;-57
2021/03/04 01:30:47;;;;;;;1.70;0.63;;;;;;;16.71;48.52;101709.13;4977242;28;20653;-60
2021/03/04 01:33:13;;;;;;;2.10;0.70;;;;;;;16.70;48.50;101704.72;4989844;28;20026;-59
2021/03/04 01:35:38;;;;;;;1.38;0.50;;;;;;;16.64;48.37;101701.75;4979298;28;20054;-60
2021/03/04 01:38:04;;;;;;;1.02;0.63;;;;;;;16.61;48.40;101701.28;4970475;28;20105;-59
2021/03/04 01:40:29;;;;;;;3.38;0.85;;;;;;;16.60;48.52;101696.91;4986927;28;20022;-58
2021/03/04 01:42:55;;;;;;;1.92;0.60;;;;;;;16.56;48.41;101692.94;4977155;28;20032;-60
2021/03/04 01:45:20;;;;;;;1.80;0.65;;;;;;;16.53;48.71;101691.44;4976313;28;20080;-58
2021/03/04 01:47:51;;;;;;;0.40;0.40;;;;;;;16.52;48.55;101688.94;5008552;28;20025;-60
2021/03/04 01:50:17;;;;;;;0.85;0.65;;;;;;;16.50;48.53;101701.84;4995706;28;20210;-59
2021/03/04 01:52:43;;;;;;;1.20;1.00;;;;;;;16.47;48.63;101705.78;4987612;28;20065;-58
2021/03/04 01:55:10;;;;;;;1.73;0.60;;;;;;;16.46;48.51;101695.97;4979950;28;20064;-59
2021/03/04 01:57:36;;;;;;;0.77;0.65;;;;;;;16.43;48.57;101701.78;4986511;28;20025;-60
2021/03/04 02:00:03;;;;;;;1.27;0.60;;;;;;;16.45;48.55;101702.44;4984574;28;20022;-60
2021/03/04 02:02:28;;;;;;;0.77;0.40;;;;;;;16.40;48.50;101702.19;4975746;28;20512;-60
2021/03/04 02:04:54;;;;;;;2.15;0.70;;;;;;;16.39;48.48;101695.09;4990410;28;20030;-59
2021/03/04 02:07:32;;;;;;;0.73;0.50;;;;;;;16.39;48.47;101698.66;4992094;28;20382;-58
2021/03/04 02:10:04;;;;;;;0.63;0.63;;;;;;;16.38;48.47;101693.41;4992458;28;20037;-58
2021/03/04 02:12:35;;;;;;;1.77;0.70;;;;;;;16.36;48.32;101698.19;4978828;28;20109;-60
2021/03/04 02:15:03;;;;;;;1.25;0.80;;;;;;;16.35;48.29;101707.34;4999032;28;20029;-58
2021/03/04 02:17:30;;;;;;;0.70;0.60;;;;;;;16.29;48.45;101706.28;4984016;28;20022;-57
2021/03/04 02:19:58;;;;;;;1.13;0.40;;;;;;;16.26;48.40;101708.53;4991825;28;20085;-60
2021/03/04 02:22:40;;;;;;;0.77;0.40;;;;;;;16.24;48.40;101710.59;4977956;28;20022;-59
2021/03/04 02:25:16;;;;;;;0.73;0.50;;;;;;;16.21;48.61;101706.38;5011179;28;20038;-60
2021/03/04 02:27:41;;;;;;;0.68;0.68;;;;;;;16.18;48.55;101708.66;5011181;28;20037;-58
2021/03/04 02:30:08;;;;;;;0.82;0.60;;;;;;;16.17;48.49;101704.28;5011242;28;20022;-59
2021/03/04 02:32:36;;;;;;;0.50;0.50;;;;;;;16.12;48.37;101702.16;4974795;28;20034;-58
2021/03/04 02:35:10;;;;;;;0.60;0.40;;;;;;;16.12;48.38;101700.28;4991374;28;20137;-60
2021/03/04 02:37:39;;;;;;;1.83;1.00;;;;;;;16.09;48.59;101703.38;4976239;28;20022;-60
2021/03/04 02:40:06;;;;;;;1.93;0.80;;;;;;;16.08;48.32;101698.16;4990555;28;20406;-60
2021/03/04 02:42:31;;;;;;;0.95;0.60;;;;;;;16.06;48.41;101697.50;4991637;28;20030;-58
2021/03/04 02:44:57;;;;;;;1.10;0.50;;;;;;;16.03;48.35;101696.00;4977769;28;20018;-60
2021/03/04 02:47:22;;;;;;;1.55;0.70;;;;;;;16.00;48.37;101691.00;4976017;28;20034;-60
2021/03/04 02:49:48;;;;;;;0.93;0.50;;;;;;;15.97;48.41;101685.97;4991715;28;20389;-60
2021/03/04 02:52:14;;;;;;;1.70;0.65;;;;;;;15.98;48.39;101684.91;4991930;28;20170;-58
2021/03/04 02:54:40;;;;;;;0.47;0.47;;;;;;;15.96;48.46;101686.16;4973768;28;20096;-59
2021/03/04 02:57:06;;;;;;;0.88;0.47;;;;;;;15.95;48.51;101687.19;4990416;28;20026;-58
2021/03/04 02:59:32;;;;;;;1.25;0.30;;;;;;;15.95;48.34;101679.06;4981464;28;20093;-58
2021/03/04 03:01:58;;;;;;;3.17;0.50;;;;;;;15.93;48.47;101681.94;5004217;28;20108;-57
2021/03/04 03:04:24;;;;;;;0.47;0.40;;;;;;;15.91;48.51;101677.78;4977490;28;20026;-60
2021/03/04 03:06:49;;;;;;;0.75;0.50;;;;;;;15.89;48.54;101685.25;4995112;28;20101;-60
2021/03/04 03:09:15;;;;;;;1.30;0.40;;;;;;;15.89;48.33;101679.84;4984328;28;20030;-57
2021/03/04 03:11:40;;;;;;;1.20;0.45;;;;;;;15.86;48.49;101673.75;4997627;28;20037;-60
2021/03/04 03:14:06;;;;;;;1.00;0.52;;;;;;;15.86;48.52;101683.75;4996778;28;20026;-58
2021/03/04 03:16:32;;;;;;;0.63;0.40;;;;;;;15.83;48.40;101684.16;4970126;28;20037;-58
2021/03/04 03:18:57;;;;;;;0.63;0.50;;;;;;;15.81;48.40;101684.34;4999601;28;20146;-56
2021/03/04 03:21:23;;;;;;;0.60;0.60;;;;;;;15.79;48.42;101678.28;4989833;28;20161;-60
2021/03/04 03:23:49;;;;;;;1.20;0.68;;;;;;;15.74;48.63;101688.84;5014495;28;20033;-60
2021/03/04 03:26:14;;;;;;;0.80;0.60;;;;;;;15.72;48.64;101684.66;4983720;28;20030;-56
2021/03/04 03:28:40;;;;;;;1.20;0.70;;;;;;;15.71;48.47;101674.84;4979554;28;20018;-60
2021/03/04 03:31:06;;;;;;;0.88;0.47;;;;;;;15.69;48.60;101687.75;5006049;28;20025;-60
2021/03/04 03:33:32;;;;;;;1.67;0.70;;;;;;;15.68;48.51;101684.19;4991242;28;20030;-59
2021/03/04 03:35:58;;;;;;;0.73;0.60;;;;;;;15.64;48.66;101682.91;5007879;28;20050;-57
2021/03/04 03:38:23;;;;;;;0.43;0.40;;;;;;;15.64;48.75;101676.66;4979422;28;20034;-58
2021/03/04 03:40:49;;;;;;;1.10;0.50;;;;;;;15.60;48.56;101677.03;4994525;28;20026;-58
2021/03/04 03:43:16;;;;;;;0.88;0.40;;;;;;;15.61;48.49;101678.69;4967256;28;20085;-58
2021/03/04 03:45:43;;;;;;;0.60;0.38;;;;;;;15.57;48.58;101669.25;4988341;28;20030;-60
2021/03/04 03:48:13;;;;;;;1.30;0.50;;;;;;;15.59;48.52;101669.91;4994497;28;20041;-57
2021/03/04 03:50:40;;;;;;;0.55;0.45;;;;;;;15.56;48.53;101673.00;4976242;28;20042;-58
2021/03/04 03:53:06;;;;;;;0.73;0.45;;;;;;;15.54;48.58;101669.66;4994852;28;20072;-58
2021/03/04 03:55:31;;;;;;;0.40;0.30;;;;;;;15.53;48.53;101676.09;4981835;28;20428;-60
2021/03/04 03:57:59;;;;;;;1.42;0.60;;;;;;;15.51;48.48;101670.03;4993871;28;20441;-58
2021/03/04 04:00:24;;;;;;;1.20;0.68;;;;;;;15.49;48.64;101671.28;4994530;28;20085;-60
2021/03/04 04:02:57;;;;;;;1.00;0.50;;;;;;;15.48;48.45;101672.28;4979077;28;20026;-59
2021/03/04 04:05:23;;;;;;;0.73;0.52;;;;;;;15.45;48.75;101683.50;5013556;28;20376;-60
2021/03/04 04:07:50;;;;;;;3.13;0.43;;;;;;;15.44;48.63;101674.53;5010427;28;20057;-58
2021/03/04 04:10:15;;;;;;;0.25;0.25;;;;;;;15.43;48.67;101680.97;4987315;28;20026;-57
2021/03/04 04:12:41;;;;;;;0.40;0.40;;;;;;;15.43;48.64;101678.28;4990561;28;20045;-59
2021/03/04 04:15:07;;;;;;;1.17;0.40;;;;;;;15.37;48.73;101681.72;5008767;28;20458;-58
2021/03/04 04:17:33;;;;;;;1.10;0.60;;;;;;;15.36;48.88;101685.47;4986628;28;20036;-58
2021/03/04 04:19:59;;;;;;;0.75;0.40;;;;;;;15.32;48.87;101681.47;5010577;28;20034;-60
2021/03/04 04:22:25;;;;;;;0.43;0.43;;;;;;;15.31;48.49;101690.59;4989854;28;20473;-56
2021/03/04 04:24:50;;;;;;;2.03;1.15;;;;;;;15.26;48.27;101685.78;4977036;28;20038;-56
2021/03/04 04:27:17;;;;;;;1.95;0.52;;;;;;;15.24;48.42;101689.69;5003840;28;20026;-60
2021/03/04 04:29:43;;;;;;;1.63;0.77;;;;;;;15.22;48.69;101694.44;4981255;28;20219;-60
2021/03/04 04:32:08;;;;;;;1.30;0.60;;;;;;;15.19;48.41;101689.41;4985258;28;20113;-58
2021/03/04 04:34:34;;;;;;;0.73;0.63;;;;;;;15.21;48.86;101690.91;5012566;28;20477;-56
2021/03/04 04:36:59;;;;;;;2.38;0.95;;;;;;;15.17;48.82;101691.47;4992444;28;20033;-60
2021/03/04 04:39:25;;;;;;;1.20;0.80;;;;;;;15.16;48.61;101696.03;4987107;28;20031;-60
2021/03/04 04:41:51;;;;;;;2.22;0.55;;;;;;;15.15;48.68;101699.78;4993385;28;20109;-58
2021/03/04 04:44:17;;;;;;;1.65;0.80;;;;;;;15.12;48.63;101702.84;4993666;28;20058;-56
2021/03/04 04:46:43;;;;;;;0.85;0.60;;;;;;;15.12;48.63;101697.44;4993540;28;20069;-60
2021/03/04 04:49:08;;;;;;;1.63;0.60;;;;;;;15.07;48.75;101706.09;4993497;28;20149;-57
2021/03/04 04:51:34;;;;;;;0.63;0.50;;;;;;;15.04;48.81;101703.78;4993802;28;20026;-56
2021/03/04 04:54:00;;;;;;;1.13;0.50;;;;;;;15.05;48.81;101704.63;4980238;28;20385;-59
2021/03/04 04:56:26;;;;;;;0.60;0.47;;;;;;;15.01;48.79;101723.09;4989059;28;20022;-60
2021/03/04 04:58:52;;;;;;;0.63;0.40;;;;;;;15.01;48.85;101714.97;4991438;28;20362;-59
2021/03/04 05:01:17;;;;;;;0.80;0.50;;;;;;;14.97;49.01;101721.75;4973769;28;20484;-60
2021/03/04 05:03:43;;;;;;;1.85;0.77;;;;;;;14.96;48.84;101719.25;4981977;28;20761;-59
2021/03/04 05:06:09;;;;;;;3.90;0.90;;;;;;;14.94;48.65;101714.03;4986636;28;20034;-57
2021/03/04 05:08:35;;;;;;;2.53;0.60;;;;;;;14.90;48.79;101728.94;4978514;28;20026;-59
2021/03/04 05:11:00;;;;;;;2.38;0.85;;;;;;;14.88;48.85;101717.50;4989769;28;20030;-56
2021/03/04 05:13:26;;;;;;;3.05;0.90;;;;;;;14.90;48.96;101728.94;4980112;28;20272;-58
2021/03/04 05:15:51;;;;;;;2.15;0.90;;;;;;;14.89;48.77;101724.56;4993406;28;20054;-59
2021/03/04 05:18:17;;;;;;;3.05;1.08;;;;;;;14.86;49.01;101733.03;4992576;28;20105;-59
2021/03/04 05:20:43;;;;;;;1.65;0.70;;;;;;;14.85;48.90;101730.53;4992727;28;20034;-60
2021/03/04 05:23:08;;;;;;;1.48;0.68;;;;;;;14.83;49.06;101736.13;4976884;28;20374;-60
2021/03/04 05:25:34;;;;;;;2.35;1.00;;;;;;;14.80;48.96;101736.50;4975645;28;20477;-57
2021/03/04 05:27:59;;;;;;;3.88;0.90;;;;;;;14.77;48.73;101735.00;4979609;28;20030;-60
2021/03/04 05:30:26;;;;;;;4.45;1.55;;;;;;;14.74;49.08;101731.81;4976583;28;20117;-56
2021/03/04 05:32:51;;;;;;;5.90;1.35;;;;;;;14.73;49.04;101733.69;4988395;28;20030;-60
2021/03/04 05:35:17;;;;;;;4.05;1.30;;;;;;;14.71;48.85;101740.31;4979392;28;20355;-57
2021/03/04 05:37:42;;;;;;;2.58;1.00;;;;;;;14.68;48.70;101746.06;4987104;28;20106;-57
2021/03/04 05:40:09;;;;;;;4.22;1.38;;;;;;;14.66;48.88;101745.44;4989676;28;20050;-59
2021/03/04 05:42:35;;;;;;;4.90;1.30;;;;;;;14.64;48.68;101751.00;4992667;28;20027;-58
2021/03/04 05:45:00;;;;;;;6.78;1.33;;;;;;;14.62;48.61;101757.63;4974145;28;20023;-60
2021/03/04 05:47:26;;;;;;;3.75;1.10;;;;;;;14.61;48.62;101753.25;4992122;28;20029;-60
2021/03/04 05:49:59;;;;;;;2.42;1.15;;;;;;;14.59;48.65;101748.03;4976969;28;20054;-59
2021/03/04 05:52:25;;;;;;;3.30;1.17;;;;;;;14.57;48.57;101750.06;5010487;28;20053;-57
2021/03/04 05:54:50;;;;;;;3.13;1.23;;;;;;;14.52;48.50;101752.47;4975264;28;20117;-59
2021/03/04 05:57:16;;;;;;;4.65;1.40;;;;;;;14.52;48.59;101753.31;4992267;28;20081;-59
2021/03/04 05:59:42;;;;;;;2.83;1.08;;;;;;;14.51;48.58;101757.03;4992458;28;20023;-57
2021/03/04 06:02:08;;;;;;;3.22;1.13;;;;;;;14.50;48.49;101749.94;4991468;28;20037;-59
2021/03/04 06:04:34;;;;;;;3.58;1.05;;;;;;;14.48;48.42;101751.16;4985600;28;20050;-57
2021/03/04 06:07:00;;;;;;;3.88;1.08;;;;;;;14.49;49.03;101758.25;4980486;28;20026;-59
2021/03/04 06:09:29;;;;;;;3.53;1.60;;;;;;;14.44;48.53;101756.06;4979334;28;20031;-57
2021/03/04 06:12:04;;;;;;;2.67;0.80;;;;;;;14.42;48.73;101760.81;4987046;28;20363;-59
2021/03/04 06:14:30;;;;;;;3.38;1.40;;;;;;;14.40;48.59;101759.28;4973671;28;20512;-60
2021/03/04 06:16:56;;;;;;;5.75;1.20;;;;;;;14.37;48.77;101755.09;4978968;28;20066;-55
2021/03/04 06:19:21;;;;;;;3.25;1.10;;;;;;;14.37;48.79;101751.56;4984074;28;20015;-59
2021/03/04 06:21:57;;;;;;;5.25;1.42;;;;;;;14.36;48.52;101764.22;4973691;28;20397;-60
2021/03/04 06:24:23;;;;;;;3.60;1.10;;;;;;;14.34;48.41;101755.47;4979383;28;20033;-59
2021/03/04 06:26:58;;;;;;;6.00;1.40;;;;;;;14.33;48.54;101766.44;4986893;28;20382;-57
2021/03/04 06:29:26;;;;;;;3.75;1.38;;;;;;;14.29;48.17;101771.38;4991787;28;20065;-58
2021/03/04 06:32:02;;;;;;;2.92;1.23;;;;;;;14.26;48.16;101769.88;4991789;28;20030;-59
2021/03/04 06:34:28;;;;;;;6.22;1.30;;;;;;;14.24;48.01;101780.00;4980586;28;20026;-58
2021/03/04 06:36:55;;;;;;;2.97;1.27;;;;;;;14.20;48.31;101778.69;5007431;28;20048;-60
2021/03/04 06:39:21;;;;;;;3.20;1.17;;;;;;;14.19;48.13;101789.66;4986215;28;20116;-57
2021/03/04 06:41:58;;;;;;;2.05;1.10;;;;;;;14.19;48.13;101789.66;4997551;28;20030;-60
2021/03/04 06:44:23;;;;;;;1.77;0.93;;;;;;;14.16;48.15;101784.63;4995910;28;20563;-60
2021/03/04 06:46:49;;;;;;;3.60;1.10;;;;;;;14.15;48.00;101791.91;4983237;28;20038;-59
2021/03/04 06:49:14;;;;;;;4.80;1.15;;;;;;;14.15;48.44;101800.00;4989727;28;20370;-56
2021/03/04 06:51:43;;;;;;;2.85;1.20;;;;;;;14.13;48.52;101801.19;4979073;28;20120;-59
2021/03/04 06:54:09;;;;;;;4.43;1.40;;;;;;;14.17;48.17;101807.91;4994528;28;20026;-57
2021/03/04 06:56:34;;;;;;;2.50;1.05;;;;;;;14.27;48.00;101808.53;4990481;28;20018;-57
2021/03/04 06:59:01;;;;;;;4.90;1.10;;;;;;;14.37;47.64;101814.56;4995114;28;20493;-57
2021/03/04 07:01:26;;;;;;;3.45;1.20;;;;;;;14.48;47.23;101811.47;4984350;28;20065;-57
2021/03/04 07:03:53;;;;;;;2.25;1.15;;;;;;;14.60;47.13;101819.16;4997746;28;21166;-59
2021/03/04 07:06:22;;;;;;;4.40;1.30;;;;;;;14.71;46.94;101818.72;4991066;28;20025;-57
2021/03/04 07:08:48;;;;;;;3.45;0.60;;;;;;;14.82;46.77;101821.81;4977216;28;20069;-57
2021/03/04 07:11:16;;;;;;;7.20;1.38;;;;;;;14.93;46.55;101831.34;5009401;28;20064;-57
2021/03/04 07:13:42;;;;;;;3.28;0.93;;;;;;;15.03;46.35;101828.38;4999553;28;20022;-60
2021/03/04 07:16:08;;;;;;;3.35;1.15;;;;;;;15.15;46.10;101839.56;4983027;28;20036;-57
2021/03/04 07:18:45;;;;;;;3.15;1.10;;;;;;;15.24;45.83;101831.22;4979409;28;20378;-57
2021/03/04 07:21:14;;;;;;;1.27;0.65;;;;;;;15.35;45.82;101840.72;4994949;28;20024;-60
2021/03/04 07:23:40;;;;;;;3.17;0.90;;;;;;;15.45;45.46;101837.75;4995476;28;20030;-60
2021/03/04 07:26:07;;;;;;;4.20;1.23;;;;;;;15.54;45.33;101842.91;4982318;28;20433;-58
2021/03/04 07:28:34;;;;;;;2.55;1.00;;;;;;;15.63;45.42;101848.25;4981719;28;20700;-59
2021/03/04 07:31:01;;;;;;;3.45;0.80;;;;;;;15.71;45.13;101851.69;4995294;28;20391;-60
2021/03/04 07:33:26;;;;;;;1.88;0.90;;;;;;;15.78;45.27;101854.50;4988862;28;20030;-60
2021/03/04 07:35:52;;;;;;;3.85;1.13;;;;;;;15.88;45.00;101849.59;4995024;28;20054;-60
2021/03/04 07:38:27;;;;;;;2.53;0.80;;;;;;;15.98;44.99;101855.56;4992986;28;20456;-60
2021/03/04 07:41:06;;;;;;;5.25;0.93;;;;;;;16.08;44.85;101850.69;4993376;28;20385;-58
2021/03/04 07:43:44;;;;;;;3.40;1.10;;;;;;;16.20;44.62;101853.75;4990090;28;20389;-59
2021/03/04 07:46:09;;;;;;;2.92;0.70;;;;;;;16.28;44.55;101858.22;4981697;28;21072;-60
2021/03/04 07:48:35;;;;;;;1.70;0.73;;;;;;;16.36;44.33;101860.81;4988210;28;20018;-59
2021/03/04 07:51:01;;;;;;;3.30;1.08;;;;;;;16.46;44.25;101868.63;4994424;28;20469;-58
2021/03/04 07:53:27;;;;;;;2.38;0.75;;;;;;;16.55;44.15;101867.47;4982097;28;20320;-58
2021/03/04 07:55:52;;;;;;;2.55;1.05;;;;;;;16.63;43.98;101862.78;5004845;28;20159;-59
2021/03/04 07:58:18;;;;;;;3.42;1.15;;;;;;;16.73;44.03;101861.66;5013600;28;20459;-60
2021/03/04 08:00:44;;;;;;;1.58;0.75;;;;;;;16.82;43.71;101855.88;4975230;28;20281;-60
2021/03/04 08:03:09;;;;;;;2.85;0.75;;;;;;;16.92;43.65;101863.69;4998985;28;20120;-59
2021/03/04 08:05:38;;;;;;;3.65;0.90;;;;;;;17.05;43.60;101858.34;5013700;28;20026;-60
2021/03/04 08:08:14;;;;;;;2.33;0.90;;;;;;;17.12;43.61;101861.16;5013716;28;20096;-59
2021/03/04 08:10:45;;;;;;;1.83;0.63;;;;;;;17.19;43.45;101856.59;5013599;28;20037;-59
2021/03/04 08:13:11;;;;;;;2.90;0.90;;;;;;;17.28;43.40;101858.09;4981203;28;20030;-60
2021/03/04 08:15:42;;;;;;;1.80;0.75;;;;;;;17.35;43.41;101863.63;4976938;28;20053;-59
2021/03/04 08:18:19;;;;;;;2.45;0.88;;;;;;;17.43;43.27;101871.59;4991290;28;20421;-60
2021/03/04 08:20:45;;;;;;;2.33;0.90;;;;;;;17.47;43.38;101870.16;4983045;28;20036;-60
2021/03/04 08:23:11;;;;;;;1.77;0.70;;;;;;;17.52;43.46;101878.56;4988799;28;20033;-60
2021/03/04 08:25:37;;;;;;;2.90;0.90;;;;;;;17.60;43.34;101882.97;4991289;28;20027;-60
2021/03/04 08:28:04;;;;;;;3.88;0.70;;;;;;;17.65;43.39;101878.63;4979483;28;20026;-60
2021/03/04 08:30:33;;;;;;;2.38;0.60;;;;;;;17.70;44.01;101875.31;4987966;28;20045;-60
2021/03/04 08:33:02;;;;;;;2.33;0.80;;;;;;;17.86;44.42;101882.31;4993219;28;20046;-60
2021/03/04 08:35:28;;;;;;;1.27;0.70;;;;;;;17.91;44.69;101888.84;4999774;28;20038;-60
2021/03/04 08:37:56;;;;;;;3.17;1.30;;;;;;;17.98;45.05;101880.72;4995765;28;20029;-62
2021/03/04 08:40:22;;;;;;;2.10;0.88;;;;;;;17.95;44.99;101889.25;4999307;28;20093;-63
2021/03/04 08:42:48;;;;;;;2.92;0.60;;;;;;;17.92;45.27;101882.34;5013310;28;20474;-62
2021/03/04 08:45:14;;;;;;;3.55;0.80;;;;;;;17.92;45.12;101878.81;5012583;28;20185;-62
2021/03/04 08:47:40;;;;;;;4.40;0.90;;;;;;;17.90;45.11;101884.44;4995774;28;20432;-63
2021/03/04 08:50:06;;;;;;;1.90;0.88;;;;;;;17.89;45.06;101890.91;4993263;28;20033;-62
2021/03/04 08:52:32;;;;;;;2.78;0.80;;;;;;;17.90;45.14;101891.72;4999474;28;20014;-62
2021/03/04 08:55:03;;;;;;;2.83;0.90;;;;;;;17.90;45.06;101883.56;5004382;28;20044;-62
2021/03/04 08:57:29;;;;;;;1.30;0.68;;;;;;;17.88;45.11;101889.22;5011843;28;20029;-62
2021/03/04 09:00:10;;;;;;;1.77;0.77;;;;;;;17.95;45.40;101891.97;5002824;28;20393;-62
2021/03/04 09:02:36;;;;;;;2.75;0.80;;;;;;;17.97;45.34;101890.75;4993021;28;20029;-60
2021/03/04 09:05:04;;;;;;;1.92;0.90;;;;;;;17.90;45.39;101891.72;4987641;28;20026;-60
2021/03/04 09:07:32;;;;;;;3.75;1.00;;;;;;;17.83;45.33;101891.69;4987622;28;20026;-60
2021/03/04 09:10:00;;;;;;;2.67;0.75;;;;;;;17.83;45.62;101893.59;4988240;28;20026;-61
2021/03/04 09:12:26;;;;;;;2.75;1.20;;;;;;;17.83;45.74;101894.41;5011062;28;20041;-60
2021/03/04 09:14:56;;;;;;;2.85;1.05;;;;;;;17.80;45.75;101885.84;4988080;28;20030;-62
2021/03/04 09:17:21;;;;;;;2.40;1.10;;;;;;;17.80;45.75;101897.56;4992631;28;20037;-60
2021/03/04 09:19:52;;;;;;;2.25;0.65;;;;;;;17.79;45.83;101895.00;4992858;28;20030;-60
2021/03/04 09:22:18;;;;;;;2.92;0.98;;;;;;;17.80;45.82;101897.56;4993141;28;20161;-60
2021/03/04 09:24:45;;;;;;;2.67;0.45;;;;;;;17.83;45.66;101912.59;4993207;28;20117;-61
2021/03/04 09:27:13;;;;;;;2.97;1.00;;;;;;;17.87;45.52;101911.16;4992961;28;20045;-60
2021/03/04 09:29:40;;;;;;;2.47;0.80;;;;;;;17.92;45.33;101911.41;5003049;28;20128;-60
2021/03/04 09:32:06;;;;;;;1.45;0.70;;;;;;;17.97;45.06;101906.22;5012074;28;20054;-60
2021/03/04 09:34:42;;;;;;;4.32;1.00;;;;;;;18.03;44.91;101912.72;5009679;28;20527;-59
2021/03/04 09:37:12;;;;;;;2.03;0.80;;;;;;;18.11;44.74;101916.09;4993378;28;20056;-60
2021/03/04 09:39:47;;;;;;;5.28;0.70;;;;;;;18.16;44.45;101913.59;4992626;28;20022;-60
2021/03/04 09:42:14;;;;;;;2.05;0.70;;;;;;;18.22;44.48;101909.22;4987396;28;20022;-60
2021/03/04 09:44:54;;;;;;;3.45;0.90;;;;;;;18.28;44.19;101911.13;5011488;28;20033;-60
2021/03/04 09:47:22;;;;;;;4.43;0.82;;;;;;;18.35;44.20;101908.44;4983793;28;20049;-60
2021/03/04 09:49:48;;;;;;;3.53;0.77;;;;;;;18.35;44.03;101916.59;5011064;28;20034;-60
2021/03/04 09:52:23;;;;;;;3.13;0.75;;;;;;;18.36;43.91;101912.84;5011857;28;20026;-61
2021/03/04 09:54:49;;;;;;;1.30;0.52;;;;;;;18.35;44.04;101917.47;5011857;28;20022;-60
2021/03/04 09:57:19;;;;;;;1.85;0.82;;;;;;;18.36;44.02;101923.72;5011773;28;20040;-60
2021/03/04 09:59:48;;;;;;;2.13;0.93;;;;;;;18.35;44.07;101916.59;5011677;28;20026;-60
2021/03/04 10:02:15;;;;;;;4.00;1.27;;;;;;;18.34;44.11;101929.34;5011757;28;20034;-60
2021/03/04 10:04:54;;;;;;;2.55;0.95;;;;;;;18.33;44.13;101926.84;5011977;28;20600;-60
2021/03/04 10:07:28;;;;;;;2.00;0.70;;;;;;;18.30;44.28;101925.38;5011223;28;20030;-60
2021/03/04 10:09:54;;;;;;;4.45;1.00;;;;;;;18.28;44.28;101935.59;4992438;28;20276;-60
2021/03/04 10:12:20;;;;;;;3.20;0.90;;;;;;;18.26;44.40;101934.16;4991775;28;20034;-60
2021/03/04 10:14:47;;;;;;;1.90;0.90;;;;;;;18.23;44.35;101929.94;4992034;28;20484;-60
2021/03/04 10:17:13;;;;;;;2.83;1.13;;;;;;;18.21;44.51;101930.16;4992009;28;20106;-60
2021/03/04 10:19:39;;;;;;;2.15;0.63;;;;;;;18.19;44.57;101936.84;4991694;28;20576;-60
2021/03/04 10:22:05;;;;;;;2.45;0.80;;;;;;;18.17;44.68;101938.91;4992136;28;20022;-60
2021/03/04 10:24:30;;;;;;;2.35;0.70;;;;;;;18.13;44.60;101938.50;4986387;28;20444;-60
2021/03/04 10:26:58;;;;;;;2.30;0.60;;;;;;;18.11;44.71;101943.25;4991829;28;20023;-60
2021/03/04 10:29:25;;;;;;;1.38;0.60;;;;;;;18.10;45.18;101941.59;5000665;28;20092;-60
2021/03/04 10:31:51;;;;;;;2.17;1.02;;;;;;;18.06;44.87;101940.31;5011038;28;20072;-61
2021/03/04 10:34:17;;;;;;;3.30;1.30;;;;;;;18.06;45.32;101951.19;5011257;28;20472;-66
2021/03/04 10:36:42;;;;;;;3.58;1.05;;;;;;;18.05;45.48;101946.78;4991708;28;20113;-61
2021/03/04 14:09:23;;;;;;;4.63;0.70;;;;;;;3.60;66.48;101942.66;5107857;22;25332489;-94
2021/03/04 14:12:23;;;;;;;6.97;1.50;;;;;;;3.54;62.82;101956.38;6065182;23;20067;-93
2021/03/04 14:14:49;;;;;;;8.20;0.90;;;;;;;3.45;62.28;101958.69;6111871;23;20013;-93
2021/03/04 14:17:17;;;;;;;6.32;1.00;;;;;;;3.40;64.05;101971.44;6128711;23;20451;-93
2021/03/04 14:19:48;;;;;;;6.18;0.98;;;;;;;3.42;60.36;101972.19;6134694;23;20009;-92
2021/03/04 14:22:14;;;;;;;10.65;1.27;;;;;;;3.33;61.79;101964.84;6130872;23;20008;-92
2021/03/04 14:24:42;;;;;;;6.20;0.90;;;;;;;3.32;65.39;101952.53;6134861;23;20095;-92
2021/03/04 14:27:08;;;;;;;8.93;0.80;;;;;;;3.40;62.46;101966.13;6153261;23;20009;-92
2021/03/04 14:29:39;;;;;;;11.00;0.98;;;;;;;3.35;64.81;101954.97;6126751;23;20128;-93
2021/03/04 14:32:34;;;;;;;9.07;1.00;;;;;;;3.37;60.86;101974.31;6123441;23;20009;-93
2021/03/04 14:35:19;;;;;;;8.60;1.23;;;;;;;3.46;69.74;101964.84;6159802;23;20028;-93
2021/03/04 14:37:44;;;;;;;4.13;1.42;;;;;;;3.35;66.46;101957.63;6161044;23;20069;-94
2021/03/04 14:40:13;;;;;;;1.08;0.50;;;;;;;3.43;64.42;101957.13;6134923;23;20008;-94
2021/03/04 14:43:07;;;;;;;7.43;1.00;;;;;;;3.45;61.92;101971.13;6134356;23;20099;-92
2021/03/04 14:45:38;;;;;;;5.93;1.30;;;;;;;3.54;61.88;101972.31;6139528;23;20009;-94
2021/03/04 14:48:29;;;;;;;7.53;0.98;;;;;;;3.36;65.16;101979.69;6135284;23;20008;-93
2021/03/04 14:51:06;;;;;;;9.55;1.08;;;;;;;3.36;66.37;101966.44;6123255;23;20032;-92
2021/03/04 14:53:58;;;;;;;4.25;0.40;;;;;;;3.24;63.75;101973.41;6135579;23;20064;-93
2021/03/04 14:56:36;;;;;;;2.28;0.60;;;;;;;3.23;66.24;101978.84;6175424;23;20084;-93
2021/03/04 14:59:02;;;;;;;8.52;0.57;;;;;;;3.36;66.63;101969.09;6130910;23;20062;-93